sensor_id;sensor_type;location;lat;lon;timestamp;pressure;altitude;pressure_sealevel;temperature;humidity
75418;BME280;63997;52.112;5.420;2023-05-15T00:01:39;101675.53;;;11.66;85.67
75418;BME280;63997;52.112;5.420;2023-05-15T00:04:06;101685.91;;;11.68;85.56
75418;BME280;63997;52.112;5.420;2023-05-15T00:06:32;101677.09;;;11.67;85.33
75418;BME280;63997;52.112;5.420;2023-05-15T00:08:59;101679.75;;;11.67;85.49
75418;BME280;63997;52.112;5.420;2023-05-15T00:11:25;101677.09;;;11.67;85.32
75418;BME280;63997;52.112;5.420;2023-05-15T00:13:53;101675.25;;;11.68;85.51
75418;BME280;63997;52.112;5.420;2023-05-15T00:16:19;101671.78;;;11.67;85.37
75418;BME280;63997;52.112;5.420;2023-05-15T00:18:46;101661.75;;;11.64;85.49
75418;BME280;63997;52.112;5.420;2023-05-15T00:21:12;101668.28;;;11.58;85.50
75418;BME280;63997;52.112;5.420;2023-05-15T00:23:38;101671.88;;;11.53;85.69
75418;BME280;63997;52.112;5.420;2023-05-15T00:26:05;101661.63;;;11.47;85.45
75418;BME280;63997;52.112;5.420;2023-05-15T00:28:31;101663.81;;;11.45;85.71
75418;BME280;63997;52.112;5.420;2023-05-15T00:30:58;101669.75;;;11.42;85.55
75418;BME280;63997;52.112;5.420;2023-05-15T00:33:24;101665.53;;;11.41;85.55
75418;BME280;63997;52.112;5.420;2023-05-15T00:35:50;101664.13;;;11.43;85.60
75418;BME280;63997;52.112;5.420;2023-05-15T00:38:17;101658.78;;;11.43;85.97
75418;BME280;63997;52.112;5.420;2023-05-15T00:40:44;101652.69;;;11.43;85.69
75418;BME280;63997;52.112;5.420;2023-05-15T00:43:11;101656.44;;;11.42;85.87
75418;BME280;63997;52.112;5.420;2023-05-15T00:45:38;101657.53;;;11.41;85.90
75418;BME280;63997;52.112;5.420;2023-05-15T00:48:07;101649.66;;;11.35;85.66
75418;BME280;63997;52.112;5.420;2023-05-15T00:50:34;101644.94;;;11.32;85.73
75418;BME280;63997;52.112;5.420;2023-05-15T00:53:02;101647.13;;;11.30;85.37
75418;BME280;63997;52.112;5.420;2023-05-15T00:55:30;101644.59;;;11.25;85.17
75418;BME280;63997;52.112;5.420;2023-05-15T00:57:57;101644.03;;;11.15;85.17
75418;BME280;63997;52.112;5.420;2023-05-15T01:00:24;101638.03;;;11.09;85.50
75418;BME280;63997;52.112;5.420;2023-05-15T01:02:52;101643.78;;;11.02;85.60
75418;BME280;63997;52.112;5.420;2023-05-15T01:05:19;101642.81;;;10.98;85.75
75418;BME280;63997;52.112;5.420;2023-05-15T01:07:58;101643.13;;;10.97;86.06
75418;BME280;63997;52.112;5.420;2023-05-15T01:10:26;101642.03;;;10.98;86.13
75418;BME280;63997;52.112;5.420;2023-05-15T01:12:54;101645.16;;;11.00;86.12
75418;BME280;63997;52.112;5.420;2023-05-15T01:15:22;101645.16;;;11.00;86.19
75418;BME280;63997;52.112;5.420;2023-05-15T01:17:49;101635.13;;;10.97;86.20
75418;BME280;63997;52.112;5.420;2023-05-15T01:20:17;101637.34;;;10.95;86.57
75418;BME280;63997;52.112;5.420;2023-05-15T01:23:08;101645.91;;;10.92;86.03
75418;BME280;63997;52.112;5.420;2023-05-15T01:26:00;101639.13;;;10.85;86.04
75418;BME280;63997;52.112;5.420;2023-05-15T01:28:39;101634.22;;;10.79;86.43
75418;BME280;63997;52.112;5.420;2023-05-15T01:31:13;101631.84;;;10.77;86.77
75418;BME280;63997;52.112;5.420;2023-05-15T01:33:45;101627.91;;;10.75;86.47
75418;BME280;63997;52.112;5.420;2023-05-15T01:36:21;101626.53;;;10.77;86.80
75418;BME280;63997;52.112;5.420;2023-05-15T01:38:52;101617.47;;;10.78;86.72
75418;BME280;63997;52.112;5.420;2023-05-15T01:44:09;101624.28;;;10.71;86.47
75418;BME280;63997;52.112;5.420;2023-05-15T01:46:38;101622.50;;;10.66;86.13
75418;BME280;63997;52.112;5.420;2023-05-15T01:49:09;101621.72;;;10.66;86.32
75418;BME280;63997;52.112;5.420;2023-05-15T01:51:38;101623.31;;;10.67;86.43
75418;BME280;63997;52.112;5.420;2023-05-15T01:54:06;101623.13;;;10.63;86.68
75418;BME280;63997;52.112;5.420;2023-05-15T01:56:34;101611.81;;;10.57;86.30
75418;BME280;63997;52.112;5.420;2023-05-15T01:59:03;101626.00;;;10.53;86.50
75418;BME280;63997;52.112;5.420;2023-05-15T02:01:31;101634.97;;;10.57;86.71
75418;BME280;63997;52.112;5.420;2023-05-15T02:03:59;101625.41;;;10.56;86.24
75418;BME280;63997;52.112;5.420;2023-05-15T02:06:27;101631.53;;;10.56;86.31
75418;BME280;63997;52.112;5.420;2023-05-15T02:08:56;101640.75;;;10.59;86.00
75418;BME280;63997;52.112;5.420;2023-05-15T02:11:23;101639.66;;;10.60;86.00
75418;BME280;63997;52.112;5.420;2023-05-15T02:13:50;101628.34;;;10.68;86.70
75418;BME280;63997;52.112;5.420;2023-05-15T02:16:16;101624.94;;;10.76;87.08
75418;BME280;63997;52.112;5.420;2023-05-15T02:18:43;101628.00;;;10.83;87.61
75418;BME280;63997;52.112;5.420;2023-05-15T02:21:10;101632.13;;;10.90;88.03
75418;BME280;63997;52.112;5.420;2023-05-15T02:23:36;101631.38;;;10.98;88.60
75418;BME280;63997;52.112;5.420;2023-05-15T02:26:50;101627.81;;;11.02;88.89
75418;BME280;63997;52.112;5.420;2023-05-15T02:35:17;101634.97;;;11.16;89.04
75418;BME280;63997;52.112;5.420;2023-05-15T02:37:47;101630.91;;;11.18;89.33
75418;BME280;63997;52.112;5.420;2023-05-15T02:40:15;101631.81;;;11.13;89.20
75418;BME280;63997;52.112;5.420;2023-05-15T02:42:43;101628.97;;;11.10;88.99
75418;BME280;63997;52.112;5.420;2023-05-15T02:45:11;101627.41;;;11.09;89.05
75418;BME280;63997;52.112;5.420;2023-05-15T02:47:38;101625.22;;;11.11;88.99
75418;BME280;63997;52.112;5.420;2023-05-15T02:50:06;101629.94;;;11.14;89.34
75418;BME280;63997;52.112;5.420;2023-05-15T02:52:33;101627.28;;;11.14;89.38
75418;BME280;63997;52.112;5.420;2023-05-15T02:55:00;101633.56;;;11.18;89.23
75418;BME280;63997;52.112;5.420;2023-05-15T02:57:27;101624.03;;;11.17;89.35
75418;BME280;63997;52.112;5.420;2023-05-15T02:59:54;101624.03;;;11.17;89.27
75418;BME280;63997;52.112;5.420;2023-05-15T03:02:21;101628.53;;;11.17;89.20
75418;BME280;63997;52.112;5.420;2023-05-15T03:04:47;101621.47;;;11.12;89.41
75418;BME280;63997;52.112;5.420;2023-05-15T03:07:14;101616.56;;;11.05;89.51
75418;BME280;63997;52.112;5.420;2023-05-15T03:09:40;101613.72;;;11.02;89.47
75418;BME280;63997;52.112;5.420;2023-05-15T03:12:07;101610.28;;;11.01;89.47
75418;BME280;63997;52.112;5.420;2023-05-15T03:14:33;101619.66;;;10.99;89.63
75418;BME280;63997;52.112;5.420;2023-05-15T03:17:00;101615.41;;;10.98;89.38
75418;BME280;63997;52.112;5.420;2023-05-15T03:19:26;101619.47;;;10.95;89.16
75418;BME280;63997;52.112;5.420;2023-05-15T03:21:53;101618.97;;;10.93;89.32
75418;BME280;63997;52.112;5.420;2023-05-15T03:24:19;101615.22;;;10.94;89.36
75418;BME280;63997;52.112;5.420;2023-05-15T03:26:46;101613.84;;;10.97;89.44
75418;BME280;63997;52.112;5.420;2023-05-15T03:29:12;101603.00;;;10.93;89.31
75418;BME280;63997;52.112;5.420;2023-05-15T03:31:39;101614.94;;;10.96;89.59
75418;BME280;63997;52.112;5.420;2023-05-15T03:34:05;101607.75;;;10.96;89.28
75418;BME280;63997;52.112;5.420;2023-05-15T03:36:32;101606.97;;;10.96;89.30
75418;BME280;63997;52.112;5.420;2023-05-15T03:38:58;101599.44;;;10.98;89.11
75418;BME280;63997;52.112;5.420;2023-05-15T03:41:24;101605.41;;;10.95;89.28
75418;BME280;63997;52.112;5.420;2023-05-15T03:43:53;101610.72;;;10.95;89.09
75418;BME280;63997;52.112;5.420;2023-05-15T03:46:19;101605.50;;;10.90;89.13
75418;BME280;63997;52.112;5.420;2023-05-15T03:48:45;101603.13;;;10.88;89.25
75418;BME280;63997;52.112;5.420;2023-05-15T03:51:12;101594.34;;;10.88;88.83
75418;BME280;63997;52.112;5.420;2023-05-15T03:53:38;101594.78;;;10.81;88.71
75418;BME280;63997;52.112;5.420;2023-05-15T03:56:04;101596.78;;;10.75;88.65
75418;BME280;63997;52.112;5.420;2023-05-15T03:58:31;101597.88;;;10.74;89.12
75418;BME280;63997;52.112;5.420;2023-05-15T04:00:57;101600.72;;;10.78;89.08
75418;BME280;63997;52.112;5.420;2023-05-15T04:03:24;101611.66;;;10.76;89.00
75418;BME280;63997;52.112;5.420;2023-05-15T04:05:50;101618.53;;;10.77;88.77
75418;BME280;63997;52.112;5.420;2023-05-15T04:08:17;101620.59;;;10.80;88.96
75418;BME280;63997;52.112;5.420;2023-05-15T04:10:43;101620.03;;;10.83;88.97
75418;BME280;63997;52.112;5.420;2023-05-15T04:13:10;101614.69;;;10.83;88.75
75418;BME280;63997;52.112;5.420;2023-05-15T04:15:37;101614.38;;;10.85;88.81
75418;BME280;63997;52.112;5.420;2023-05-15T04:18:03;101616.75;;;10.86;88.92
75418;BME280;63997;52.112;5.420;2023-05-15T04:20:30;101613.88;;;10.83;88.39
75418;BME280;63997;52.112;5.420;2023-05-15T04:22:57;101622.69;;;10.83;88.63
75418;BME280;63997;52.112;5.420;2023-05-15T04:25:23;101620.38;;;10.91;88.93
75418;BME280;63997;52.112;5.420;2023-05-15T04:27:50;101613.97;;;10.92;88.53
75418;BME280;63997;52.112;5.420;2023-05-15T04:30:17;101626.78;;;10.90;88.32
75418;BME280;63997;52.112;5.420;2023-05-15T04:32:43;101620.38;;;10.91;88.17
75418;BME280;63997;52.112;5.420;2023-05-15T04:35:10;101620.97;;;10.88;87.72
75418;BME280;63997;52.112;5.420;2023-05-15T04:37:39;101620.13;;;10.78;87.05
75418;BME280;63997;52.112;5.420;2023-05-15T04:40:06;101627.13;;;10.74;87.27
75418;BME280;63997;52.112;5.420;2023-05-15T04:42:36;101625.56;;;10.73;86.93
75418;BME280;63997;52.112;5.420;2023-05-15T04:45:06;101616.59;;;10.69;86.91
75418;BME280;63997;52.112;5.420;2023-05-15T04:47:33;101620.25;;;10.73;87.19
75418;BME280;63997;52.112;5.420;2023-05-15T04:50:00;101623.38;;;10.75;87.13
75418;BME280;63997;52.112;5.420;2023-05-15T04:52:26;101632.16;;;10.76;87.11
75418;BME280;63997;52.112;5.420;2023-05-15T04:54:52;101626.13;;;10.84;87.56
75418;BME280;63997;52.112;5.420;2023-05-15T04:57:21;101634.28;;;10.88;87.67
75418;BME280;63997;52.112;5.420;2023-05-15T04:59:47;101635.56;;;10.90;87.18
75418;BME280;63997;52.112;5.420;2023-05-15T05:02:13;101629.19;;;10.77;86.64
75418;BME280;63997;52.112;5.420;2023-05-15T05:04:41;101626.25;;;10.79;86.72
75418;BME280;63997;52.112;5.420;2023-05-15T05:07:09;101626.25;;;10.79;86.65
75418;BME280;63997;52.112;5.420;2023-05-15T05:09:37;101624.72;;;10.86;86.88
75418;BME280;63997;52.112;5.420;2023-05-15T05:12:03;101618.03;;;10.89;86.48
75418;BME280;63997;52.112;5.420;2023-05-15T05:14:30;101627.59;;;10.90;86.28
75418;BME280;63997;52.112;5.420;2023-05-15T05:16:56;101632.59;;;10.92;86.42
75418;BME280;63997;52.112;5.420;2023-05-15T05:19:23;101636.22;;;10.96;85.94
75418;BME280;63997;52.112;5.420;2023-05-15T05:21:49;101640.59;;;10.92;85.65
75418;BME280;63997;52.112;5.420;2023-05-15T05:24:15;101647.34;;;10.98;85.86
75418;BME280;63997;52.112;5.420;2023-05-15T05:26:42;101630.41;;;10.94;85.50
75418;BME280;63997;52.112;5.420;2023-05-15T05:29:09;101632.72;;;11.09;86.26
75418;BME280;63997;52.112;5.420;2023-05-15T05:31:36;101639.81;;;11.13;85.47
75418;BME280;63997;52.112;5.420;2023-05-15T05:34:02;101632.78;;;11.18;85.32
75418;BME280;63997;52.112;5.420;2023-05-15T05:36:29;101627.16;;;11.19;85.23
75418;BME280;63997;52.112;5.420;2023-05-15T05:38:55;101624.31;;;11.16;84.78
75418;BME280;63997;52.112;5.420;2023-05-15T05:41:22;101619.06;;;11.24;85.07
75418;BME280;63997;52.112;5.420;2023-05-15T05:43:48;101628.72;;;11.43;84.37
75418;BME280;63997;52.112;5.420;2023-05-15T05:46:14;101618.53;;;11.45;84.06
75418;BME280;63997;52.112;5.420;2023-05-15T05:48:41;101621.34;;;11.39;83.64
75418;BME280;63997;52.112;5.420;2023-05-15T05:51:07;101630.78;;;11.46;84.67
75418;BME280;63997;52.112;5.420;2023-05-15T05:53:34;101624.94;;;11.44;83.54
75418;BME280;63997;52.112;5.420;2023-05-15T05:56:02;101630.66;;;11.51;83.69
75418;BME280;63997;52.112;5.420;2023-05-15T05:58:28;101631.59;;;11.55;83.27
75418;BME280;63997;52.112;5.420;2023-05-15T06:00:54;101631.84;;;11.45;83.23
75418;BME280;63997;52.112;5.420;2023-05-15T06:03:21;101625.25;;;11.42;82.95
75418;BME280;63997;52.112;5.420;2023-05-15T06:05:48;101628.19;;;11.63;83.51
75418;BME280;63997;52.112;5.420;2023-05-15T06:08:15;101627.53;;;11.88;83.03
75418;BME280;63997;52.112;5.420;2023-05-15T06:10:42;101624.41;;;11.95;82.25
75418;BME280;63997;52.112;5.420;2023-05-15T06:13:08;101626.66;;;12.10;82.71
75418;BME280;63997;52.112;5.420;2023-05-15T06:15:35;101615.44;;;12.57;81.39
75418;BME280;63997;52.112;5.420;2023-05-15T06:18:01;101612.19;;;12.68;81.88
75418;BME280;63997;52.112;5.420;2023-05-15T06:20:28;101615.00;;;12.98;81.78
75418;BME280;63997;52.112;5.420;2023-05-15T06:22:54;101613.72;;;13.30;80.98
75418;BME280;63997;52.112;5.420;2023-05-15T06:25:21;101622.78;;;13.46;79.36
75418;BME280;63997;52.112;5.420;2023-05-15T06:27:47;101614.84;;;13.67;78.74
75418;BME280;63997;52.112;5.420;2023-05-15T06:30:14;101608.94;;;14.21;73.86
75418;BME280;63997;52.112;5.420;2023-05-15T06:32:40;101614.41;;;13.95;74.57
75418;BME280;63997;52.112;5.420;2023-05-15T06:35:08;101618.25;;;14.15;73.15
75418;BME280;63997;52.112;5.420;2023-05-15T06:37:35;101610.94;;;14.24;71.73
75418;BME280;63997;52.112;5.420;2023-05-15T06:40:03;101610.47;;;14.51;71.96
75418;BME280;63997;52.112;5.420;2023-05-15T06:42:30;101596.63;;;17.18;67.06
75418;BME280;63997;52.112;5.420;2023-05-15T06:44:56;101598.81;;;19.27;57.86
75418;BME280;63997;52.112;5.420;2023-05-15T06:47:23;101604.00;;;18.94;57.11
75418;BME280;63997;52.112;5.420;2023-05-15T06:49:50;101609.88;;;19.42;57.15
75418;BME280;63997;52.112;5.420;2023-05-15T06:52:16;101597.25;;;19.72;55.07
75418;BME280;63997;52.112;5.420;2023-05-15T06:54:43;101609.44;;;19.17;54.89
75418;BME280;63997;52.112;5.420;2023-05-15T06:57:09;101608.19;;;19.34;54.87
75418;BME280;63997;52.112;5.420;2023-05-15T06:59:36;101614.81;;;19.17;55.63
75418;BME280;63997;52.112;5.420;2023-05-15T07:02:02;101617.94;;;19.19;55.97
75418;BME280;63997;52.112;5.420;2023-05-15T07:04:29;101614.94;;;19.47;55.06
75418;BME280;63997;52.112;5.420;2023-05-15T07:06:59;101617.31;;;19.25;54.23
75418;BME280;63997;52.112;5.420;2023-05-15T07:09:25;101617.31;;;19.25;54.15
75418;BME280;63997;52.112;5.420;2023-05-15T07:11:52;101614.59;;;18.83;56.52
75418;BME280;63997;52.112;5.420;2023-05-15T07:14:18;101615.66;;;19.21;55.00
75418;BME280;63997;52.112;5.420;2023-05-15T07:16:45;101607.53;;;20.16;51.27
75418;BME280;63997;52.112;5.420;2023-05-15T07:19:12;101600.66;;;21.23;50.47
75418;BME280;63997;52.112;5.420;2023-05-15T07:21:39;101590.41;;;21.43;49.10
75418;BME280;63997;52.112;5.420;2023-05-15T07:24:05;101602.47;;;21.53;47.67
75418;BME280;63997;52.112;5.420;2023-05-15T07:26:32;101606.38;;;21.59;49.65
75418;BME280;63997;52.112;5.420;2023-05-15T07:29:12;101600.66;;;21.27;48.11
75418;BME280;63997;52.112;5.420;2023-05-15T07:31:38;101600.88;;;21.48;48.93
75418;BME280;63997;52.112;5.420;2023-05-15T07:34:05;101600.72;;;20.93;48.39
75418;BME280;63997;52.112;5.420;2023-05-15T07:36:32;101600.88;;;20.70;49.78
75418;BME280;63997;52.112;5.420;2023-05-15T07:38:58;101607.00;;;20.64;50.51
75418;BME280;63997;52.112;5.420;2023-05-15T07:41:25;101599.81;;;20.78;51.06
75418;BME280;63997;52.112;5.420;2023-05-15T07:43:51;101604.06;;;21.17;47.71
75418;BME280;63997;52.112;5.420;2023-05-15T07:46:18;101603.56;;;20.70;49.90
75418;BME280;63997;52.112;5.420;2023-05-15T07:48:44;101609.25;;;20.58;49.90
75418;BME280;63997;52.112;5.420;2023-05-15T07:51:10;101612.22;;;19.93;51.77
75418;BME280;63997;52.112;5.420;2023-05-15T07:53:37;101608.06;;;19.72;53.15
75418;BME280;63997;52.112;5.420;2023-05-15T07:56:03;101608.72;;;19.43;52.80
75418;BME280;63997;52.112;5.420;2023-05-15T07:58:30;101603.38;;;19.23;53.89
75418;BME280;63997;52.112;5.420;2023-05-15T08:00:56;101603.16;;;18.90;54.35
75418;BME280;63997;52.112;5.420;2023-05-15T08:03:22;101601.28;;;18.71;53.22
75418;BME280;63997;52.112;5.420;2023-05-15T08:05:49;101602.31;;;18.66;54.73
75418;BME280;63997;52.112;5.420;2023-05-15T08:08:17;101601.88;;;18.64;53.87
75418;BME280;63997;52.112;5.420;2023-05-15T08:10:43;101603.88;;;18.48;55.08
75418;BME280;63997;52.112;5.420;2023-05-15T08:13:09;101608.41;;;18.63;56.57
75418;BME280;63997;52.112;5.420;2023-05-15T08:15:36;101601.88;;;18.64;54.92
75418;BME280;63997;52.112;5.420;2023-05-15T08:18:09;101595.22;;;18.77;56.02
75418;BME280;63997;52.112;5.420;2023-05-15T08:20:37;101606.81;;;19.01;55.19
75418;BME280;63997;52.112;5.420;2023-05-15T08:23:04;101607.44;;;18.71;53.66
75418;BME280;63997;52.112;5.420;2023-05-15T08:25:30;101604.13;;;18.62;56.25
75418;BME280;63997;52.112;5.420;2023-05-15T08:27:56;101602.75;;;18.88;56.20
75418;BME280;63997;52.112;5.420;2023-05-15T08:30:23;101602.88;;;18.95;54.07
75418;BME280;63997;52.112;5.420;2023-05-15T08:32:49;101604.94;;;18.82;54.77
75418;BME280;63997;52.112;5.420;2023-05-15T08:35:16;101593.88;;;18.68;54.13
75418;BME280;63997;52.112;5.420;2023-05-15T08:37:42;101600.50;;;18.70;56.00
75418;BME280;63997;52.112;5.420;2023-05-15T08:40:09;101595.34;;;18.65;55.12
75418;BME280;63997;52.112;5.420;2023-05-15T08:45:06;101598.75;;;18.43;55.34
75418;BME280;63997;52.112;5.420;2023-05-15T08:47:34;101596.47;;;18.45;56.12
75418;BME280;63997;52.112;5.420;2023-05-15T08:50:05;101603.13;;;18.32;54.70
75418;BME280;63997;52.112;5.420;2023-05-15T08:52:32;101601.78;;;18.22;55.69
75418;BME280;63997;52.112;5.420;2023-05-15T08:55:00;101598.84;;;18.11;56.78
75418;BME280;63997;52.112;5.420;2023-05-15T08:57:27;101602.81;;;18.17;57.90
75418;BME280;63997;52.112;5.420;2023-05-15T08:59:54;101611.25;;;18.16;56.89
75418;BME280;63997;52.112;5.420;2023-05-15T09:02:21;101605.97;;;18.19;57.41
75418;BME280;63997;52.112;5.420;2023-05-15T09:04:50;101603.78;;;18.25;56.59
75418;BME280;63997;52.112;5.420;2023-05-15T09:07:18;101602.69;;;18.10;57.56
75418;BME280;63997;52.112;5.420;2023-05-15T09:09:45;101604.50;;;18.06;57.60
75418;BME280;63997;52.112;5.420;2023-05-15T09:12:16;101609.94;;;17.90;57.20
75418;BME280;63997;52.112;5.420;2023-05-15T09:14:42;101605.94;;;17.84;59.18
75418;BME280;63997;52.112;5.420;2023-05-15T09:17:09;101608.63;;;17.68;59.69
75418;BME280;63997;52.112;5.420;2023-05-15T09:19:38;101607.91;;;17.71;57.93
75418;BME280;63997;52.112;5.420;2023-05-15T09:22:19;101602.00;;;17.50;59.07
75418;BME280;63997;52.112;5.420;2023-05-15T09:24:50;101609.22;;;17.62;62.17
75418;BME280;63997;52.112;5.420;2023-05-15T09:27:19;101609.81;;;17.71;60.88
75418;BME280;63997;52.112;5.420;2023-05-15T09:29:45;101604.78;;;18.01;61.03
75418;BME280;63997;52.112;5.420;2023-05-15T09:32:13;101611.47;;;18.07;60.00
75418;BME280;63997;52.112;5.420;2023-05-15T09:34:42;101609.81;;;18.38;59.73
75418;BME280;63997;52.112;5.420;2023-05-15T09:37:11;101614.84;;;18.39;60.56
75418;BME280;63997;52.112;5.420;2023-05-15T09:39:42;101609.34;;;18.16;58.41
75418;BME280;63997;52.112;5.420;2023-05-15T09:42:13;101612.44;;;17.99;59.70
75418;BME280;63997;52.112;5.420;2023-05-15T09:44:44;101606.09;;;18.07;60.40
75418;BME280;63997;52.112;5.420;2023-05-15T09:47:12;101610.75;;;18.10;60.33
75418;BME280;63997;52.112;5.420;2023-05-15T09:49:43;101604.47;;;17.87;62.58
75418;BME280;63997;52.112;5.420;2023-05-15T09:52:09;101607.56;;;17.89;63.48
75418;BME280;63997;52.112;5.420;2023-05-15T09:54:36;101604.44;;;18.03;62.45
75418;BME280;63997;52.112;5.420;2023-05-15T09:57:10;101604.69;;;18.13;64.05
75418;BME280;63997;52.112;5.420;2023-05-15T09:59:44;101603.78;;;18.25;63.11
75418;BME280;63997;52.112;5.420;2023-05-15T10:02:27;101606.25;;;18.34;62.40
75418;BME280;63997;52.112;5.420;2023-05-15T10:04:57;101611.88;;;18.44;62.94
75418;BME280;63997;52.112;5.420;2023-05-15T10:07:28;101606.84;;;18.43;64.23
75418;BME280;63997;52.112;5.420;2023-05-15T10:09:54;101608.53;;;18.32;61.35
75418;BME280;63997;52.112;5.420;2023-05-15T10:12:22;101618.06;;;18.10;63.38
75418;BME280;63997;52.112;5.420;2023-05-15T10:14:50;101613.06;;;17.92;61.50
75418;BME280;63997;52.112;5.420;2023-05-15T10:17:20;101620.16;;;17.69;62.65
75418;BME280;63997;52.112;5.420;2023-05-15T10:19:49;101616.50;;;17.61;63.77
75418;BME280;63997;52.112;5.420;2023-05-15T10:22:22;101616.25;;;17.66;65.13
75418;BME280;63997;52.112;5.420;2023-05-15T10:24:51;101618.69;;;17.71;65.57
75418;BME280;63997;52.112;5.420;2023-05-15T10:27:23;101629.63;;;17.79;65.11
75418;BME280;63997;52.112;5.420;2023-05-15T10:29:53;101622.84;;;17.69;64.46
75418;BME280;63997;52.112;5.420;2023-05-15T10:32:21;101623.91;;;17.64;66.30
75418;BME280;63997;52.112;5.420;2023-05-15T10:34:48;101625.19;;;17.55;64.27
75418;BME280;63997;52.112;5.420;2023-05-15T10:37:17;101629.63;;;17.47;65.96
75418;BME280;63997;52.112;5.420;2023-05-15T10:39:44;101634.81;;;17.40;65.90
75418;BME280;63997;52.112;5.420;2023-05-15T10:42:11;101631.75;;;17.26;65.95
75418;BME280;63997;52.112;5.420;2023-05-15T10:44:38;101628.28;;;17.25;66.92
75418;BME280;63997;52.112;5.420;2023-05-15T10:47:05;101631.88;;;17.29;67.80
75418;BME280;63997;52.112;5.420;2023-05-15T10:49:32;101628.97;;;17.22;67.67
75418;BME280;63997;52.112;5.420;2023-05-15T10:51:59;101620.38;;;17.16;67.41
75418;BME280;63997;52.112;5.420;2023-05-15T10:54:27;101630.94;;;17.09;67.14
75418;BME280;63997;52.112;5.420;2023-05-15T10:56:57;101626.94;;;17.03;67.27
75418;BME280;63997;52.112;5.420;2023-05-15T10:59:30;101630.66;;;16.99;68.23
75418;BME280;63997;52.112;5.420;2023-05-15T11:02:26;101629.00;;;16.94;68.64
75418;BME280;63997;52.112;5.420;2023-05-15T11:07:22;101630.06;;;16.77;68.06
75418;BME280;63997;52.112;5.420;2023-05-15T11:09:49;101622.72;;;16.74;68.85
75418;BME280;63997;52.112;5.420;2023-05-15T11:12:15;101620.56;;;16.80;70.04
75418;BME280;63997;52.112;5.420;2023-05-15T11:17:24;101612.69;;;16.87;67.88
75418;BME280;63997;52.112;5.420;2023-05-15T11:22:19;101625.41;;;16.50;68.85
75418;BME280;63997;52.112;5.420;2023-05-15T11:24:50;101624.28;;;16.63;68.89
75418;BME280;63997;52.112;5.420;2023-05-15T11:27:28;101623.50;;;16.62;69.03
75418;BME280;63997;52.112;5.420;2023-05-15T11:30:08;101627.31;;;16.61;68.65
75418;BME280;63997;52.112;5.420;2023-05-15T11:35:35;101631.00;;;16.57;70.21
75418;BME280;63997;52.112;5.420;2023-05-15T11:40:52;101619.53;;;16.32;70.73
75418;BME280;63997;52.112;5.420;2023-05-15T11:43:29;101626.94;;;16.23;70.56
75418;BME280;63997;52.112;5.420;2023-05-15T11:48:33;101614.16;;;16.32;71.05
75418;BME280;63997;52.112;5.420;2023-05-15T11:51:00;101615.03;;;16.48;71.34
75418;BME280;63997;52.112;5.420;2023-05-15T11:53:30;101609.97;;;16.59;71.34
75418;BME280;63997;52.112;5.420;2023-05-15T11:55:57;101615.75;;;16.61;69.11
75418;BME280;63997;52.112;5.420;2023-05-15T11:58:25;101616.81;;;16.56;70.51
75418;BME280;63997;52.112;5.420;2023-05-15T12:00:52;101614.31;;;16.63;69.02
75418;BME280;63997;52.112;5.420;2023-05-15T12:03:30;101615.97;;;16.68;69.94
75418;BME280;63997;52.112;5.420;2023-05-15T12:05:57;101610.16;;;16.78;70.90
75418;BME280;63997;52.112;5.420;2023-05-15T12:08:30;101614.25;;;16.88;69.73
75418;BME280;63997;52.112;5.420;2023-05-15T12:10:58;101615.56;;;16.94;69.79
75418;BME280;63997;52.112;5.420;2023-05-15T12:13:25;101611.19;;;17.02;69.99
75418;BME280;63997;52.112;5.420;2023-05-15T12:15:54;101613.69;;;17.10;68.25
75418;BME280;63997;52.112;5.420;2023-05-15T12:18:21;101611.47;;;17.12;69.15
75418;BME280;63997;52.112;5.420;2023-05-15T12:20:50;101603.84;;;17.30;67.13
75418;BME280;63997;52.112;5.420;2023-05-15T12:23:21;101606.09;;;17.44;66.86
75418;BME280;63997;52.112;5.420;2023-05-15T12:25:49;101611.47;;;17.44;67.34
75418;BME280;63997;52.112;5.420;2023-05-15T12:28:17;101611.31;;;17.53;66.36
75418;BME280;63997;52.112;5.420;2023-05-15T12:30:43;101607.50;;;17.69;66.49
75418;BME280;63997;52.112;5.420;2023-05-15T12:33:10;101606.88;;;17.92;64.50
75418;BME280;63997;52.112;5.420;2023-05-15T12:35:42;101608.41;;;18.09;64.56
75418;BME280;63997;52.112;5.420;2023-05-15T12:38:13;101603.50;;;18.30;64.38
75418;BME280;63997;52.112;5.420;2023-05-15T12:40:42;101602.66;;;18.45;62.40
75418;BME280;63997;52.112;5.420;2023-05-15T12:43:09;101603.22;;;18.55;61.91
75418;BME280;63997;52.112;5.420;2023-05-15T12:45:40;101600.72;;;18.27;62.94
75418;BME280;63997;52.112;5.420;2023-05-15T12:48:12;101602.47;;;17.84;62.02
75418;BME280;63997;52.112;5.420;2023-05-15T12:50:43;101602.38;;;17.64;62.29
75418;BME280;63997;52.112;5.420;2023-05-15T12:53:14;101595.44;;;17.48;62.35
75418;BME280;63997;52.112;5.420;2023-05-15T12:55:43;101591.97;;;17.47;65.63
75418;BME280;63997;52.112;5.420;2023-05-15T12:58:11;101589.09;;;17.71;64.15
75418;BME280;63997;52.112;5.420;2023-05-15T13:00:40;101584.91;;;17.90;64.35
75418;BME280;63997;52.112;5.420;2023-05-15T13:03:09;101593.06;;;17.93;64.03
75418;BME280;63997;52.112;5.420;2023-05-15T13:05:36;101583.19;;;17.97;61.33
75418;BME280;63997;52.112;5.420;2023-05-15T13:08:04;101588.66;;;18.20;64.06
75418;BME280;63997;52.112;5.420;2023-05-15T13:10:35;101586.19;;;18.31;63.29
75418;BME280;63997;52.112;5.420;2023-05-15T13:13:01;101594.31;;;18.15;61.81
75418;BME280;63997;52.112;5.420;2023-05-15T13:15:33;101593.69;;;17.87;61.56
75418;BME280;63997;52.112;5.420;2023-05-15T13:18:16;101593.69;;;17.71;63.54
75418;BME280;63997;52.112;5.420;2023-05-15T13:20:45;101590.13;;;17.67;64.58
75418;BME280;63997;52.112;5.420;2023-05-15T13:23:14;101595.09;;;17.65;63.36